Big Piney, WY weather

Big Piney-Marbleton Airport (AMOS), Big Piney, WY: 9/26/2016 03:53
Visibility10 statute milesclear sky
View 7-Day Forecast
Area Summary
Sky/CloudsSky Clear
Weather [last 24 hours]None
Pressure30.49 in.Hg (1033 hPa)
Dew Point33.1 F (0.6 C)
Relative Humidity82.4 %
Reading TimePrecipitation
24-hr ending 9/25@05:530.05 in. (1.27 mm)
Temperature37.9 F (3.3 C)red thermometer
Wind Chill35.5 F (1.92 C)
Reading TimeMinimum to Maximum Temperature
6-hr ending 9/25@23:5342.1 F to 63 F (5.6 C to 17.2 C)
6-hr ending 9/25@17:5355 F to 64.9 F (12.8 C to 18.3 C)
6-hr ending 9/25@11:5328 F to 55.9 F (-2.2 C to 13.3 C)
6-hr ending 9/25@05:5328 F to 35.1 F (-2.2 C to 1.7 C)
24-hr ending 9/26@00:5328 F to 64.9 F (-2.2 C to 18.3 C)
Wind3.45 MPH (3 KT) green arrow pointing 180 degrees
Wind FromSouth (190 Degrees)
Twilight Begins06:44Sunshine Yesterday
Sunrise07:12N/A
Sunset19:10
Twilight Ends19:38
METARKBPI 260953Z AUTO 19003KT 10SM CLR 03/01 A3049 RMK AO2 SLP267 T00330006
Tags: